Terminal Aerodrome Forecast
Issued by NWS

Current Version | Previous Version | Graphics & Text | Print | Product List | Glossary On
Versions: 1 2 3 4 5 6 7 8 9 10 11 12 13 14 15 16 17 18 19 20 21 22 23 24 25 26 27 28 29 30 31 32 33 34 35 36 37 38 39 40 41 42 43
000
FTUS41 KRNK 272339
TAFLWB
TAF
KLWB 272339Z 2800/2824 24008KT P6SM VCSH SCT035 BKN050
     FM280200 27005KT P6SM OVC025
     FM280900 28004KT P6SM OVC012
     FM281200 28008KT P6SM OVC025
     FM281500 28010G18KT P6SM SCT025 BKN040=

USA.gov is the U.S. government's official web portal to all federal, state and local government web resources and services.